Time;durP1;ratioP1;P1;durP2;ratioP2;P2;SDS_P1;SDS_P2;PMS_P1;PMS_P2;Temp;Humidity;BMP_temperature;BMP_pressure;BME280_temperature;BME280_humidity;BME280_pressure;Samples;Min_cycle;Max_cycle;Signal;HPM_P1;HPM_P2
2024/03/11 00:00:54;;;;;;;31.05;16.98;;;;;;;8.64;91.88;99207.50;6232784;23;20027;-84
2024/03/11 00:03:37;;;;;;;28.98;18.00;;;;;;;8.59;91.91;99212.84;6234684;23;20019;-85
2024/03/11 00:06:12;;;;;;;26.92;16.40;;;;;;;8.62;91.94;99209.31;6225454;23;20018;-85
2024/03/11 00:11:46;;;;;;;25.60;16.38;;;;;;;8.68;91.59;99218.72;6205961;23;20027;-85
2024/03/11 00:14:25;;;;;;;27.92;16.45;;;;;;;8.65;91.54;99210.97;6235306;23;20043;-83
2024/03/11 00:17:03;;;;;;;29.13;16.90;;;;;;;8.65;91.41;99206.59;6209382;23;20024;-83
2024/03/11 00:19:39;;;;;;;28.50;17.45;;;;;;;8.61;91.39;99218.84;6184925;23;20044;-84
2024/03/11 00:22:26;;;;;;;31.45;17.25;;;;;;;8.62;91.56;99214.50;6235754;23;20016;-83
2024/03/11 00:25:04;;;;;;;29.90;17.40;;;;;;;8.64;91.75;99220.53;6234313;23;20028;-86
2024/03/11 00:27:43;;;;;;;29.88;17.20;;;;;;;8.63;91.59;99224.06;6211723;23;20024;-86
2024/03/11 00:30:27;;;;;;;28.75;17.70;;;;;;;8.61;91.29;99218.00;6213188;23;20047;-86
2024/03/11 00:33:02;;;;;;;26.02;15.48;;;;;;;8.62;91.48;99217.13;6210121;23;20287;-85
2024/03/11 00:36:10;;;;;;;31.40;17.92;;;;;;;8.61;91.15;99212.78;6238724;23;20266;-83
2024/03/11 00:41:43;;;;;;;31.25;18.17;;;;;;;8.63;91.36;99217.97;6215471;23;20082;-84
2024/03/11 00:44:21;;;;;;;29.98;15.82;;;;;;;8.60;91.62;99217.16;6214181;23;20066;-83
2024/03/11 00:56:46;;;;;;;;;;;;;;;8.64;91.11;99222.31;6253255;23;20028;-84
2024/03/11 00:59:54;;;;;;;25.35;15.73;;;;;;;8.59;91.23;99215.44;6238133;23;19963;-85
2024/03/11 01:02:56;;;;;;;27.00;15.80;;;;;;;8.58;91.51;99224.16;6214513;23;20607;-85
2024/03/11 01:05:31;;;;;;;27.10;16.65;;;;;;;8.55;91.50;99224.25;6215899;23;20008;-84
2024/03/11 01:08:15;;;;;;;26.10;16.40;;;;;;;8.54;91.29;99225.13;6213428;23;20039;-84
2024/03/11 01:11:00;;;;;;;30.77;16.80;;;;;;;8.53;91.75;99217.34;6210547;23;20016;-84
2024/03/11 01:13:35;;;;;;;30.50;17.00;;;;;;;8.54;91.90;99219.91;6237547;23;20016;-83
2024/03/11 01:16:10;;;;;;;25.65;15.75;;;;;;;8.51;91.74;99219.97;6209124;23;20020;-83
2024/03/11 01:18:40;;;;;;;25.50;15.95;;;;;;;8.54;91.57;99219.91;6179892;23;20022;-83
2024/03/11 01:21:18;;;;;;;30.33;17.20;;;;;;;8.55;91.91;99219.03;6207815;23;20024;-84
2024/03/11 01:23:47;;;;;;;29.75;16.30;;;;;;;8.52;91.77;99215.63;6236240;23;20034;-83
2024/03/11 01:26:16;;;;;;;28.98;17.05;;;;;;;8.52;92.05;99220.84;6209526;23;20020;-84
2024/03/11 01:29:02;;;;;;;27.67;16.15;;;;;;;8.54;91.87;99216.44;6235356;23;20020;-86
2024/03/11 01:31:38;;;;;;;26.98;15.40;;;;;;;8.47;91.93;99201.84;6211534;23;20283;-86
2024/03/11 01:34:13;;;;;;;28.67;16.90;;;;;;;8.48;92.26;99204.41;6238986;23;20063;-85
2024/03/11 01:36:55;;;;;;;28.52;17.50;;;;;;;8.49;92.05;99208.72;6225673;23;20016;-84
2024/03/11 01:39:42;;;;;;;28.58;17.25;;;;;;;8.49;92.08;99205.28;6215332;23;20031;-86
2024/03/11 01:42:25;;;;;;;31.17;17.08;;;;;;;8.43;92.32;99198.41;6238565;23;20020;-83
2024/03/11 01:44:58;;;;;;;29.45;16.33;;;;;;;8.45;92.19;99201.84;6234910;23;20020;-82
2024/03/11 01:47:31;;;;;;;27.77;15.15;;;;;;;8.41;92.85;99203.66;6212000;23;20116;-85
2024/03/11 01:50:07;;;;;;;28.98;16.35;;;;;;;8.43;92.51;99209.72;6236226;23;20042;-85
2024/03/11 01:53:03;;;;;;;26.83;15.68;;;;;;;8.41;92.51;99205.44;6238457;23;20230;-85
2024/03/11 01:55:44;;;;;;;29.83;17.13;;;;;;;8.41;92.78;99202.81;6224332;23;20083;-85
2024/03/11 01:58:24;;;;;;;29.50;15.65;;;;;;;8.41;92.38;99201.06;6209305;23;20020;-84
2024/03/11 02:01:02;;;;;;;27.92;17.35;;;;;;;8.36;93.17;99199.47;6210521;23;20024;-84
2024/03/11 02:03:56;;;;;;;29.42;16.65;;;;;;;8.34;93.45;99203.84;6211702;23;20019;-84
2024/03/11 02:06:37;;;;;;;28.65;16.77;;;;;;;8.28;93.31;99199.63;6211635;23;20100;-83
2024/03/11 02:09:34;;;;;;;27.48;15.77;;;;;;;8.31;93.65;99199.56;6210369;23;20046;-85
2024/03/11 02:12:19;;;;;;;;;;;;;;;;;;;;;
2024/03/11 02:15:12;;;;;;;26.45;17.45;;;;;;;8.31;93.65;99193.50;6263465;22;20023;-83
2024/03/11 02:18:08;;;;;;;30.17;17.15;;;;;;;8.27;93.99;99197.91;6260707;23;20137;-85
2024/03/11 02:20:57;;;;;;;30.40;17.85;;;;;;;8.26;94.13;99198.81;6212475;23;20066;-83
2024/03/11 02:23:32;;;;;;;26.85;16.45;;;;;;;8.22;94.26;99182.38;6208897;23;20035;-84
2024/03/11 02:26:11;;;;;;;32.38;16.45;;;;;;;8.23;94.41;99185.84;6213322;23;20031;-85
2024/03/11 02:28:43;;;;;;;32.85;19.00;;;;;;;8.21;94.85;99187.63;6236705;23;20088;-83
2024/03/11 02:31:20;;;;;;;31.73;15.85;;;;;;;8.19;94.71;99186.81;6210240;23;20024;-86
2024/03/11 02:33:58;;;;;;;30.40;15.82;;;;;;;8.16;94.83;99190.34;6236655;23;20070;-84
2024/03/11 02:36:35;;;;;;;27.58;16.73;;;;;;;8.16;95.33;99186.88;6237882;23;20020;-84
2024/03/11 02:39:14;;;;;;;28.10;18.33;;;;;;;8.14;95.34;99191.28;6213939;23;20035;-84
2024/03/11 02:44:48;;;;;;;31.48;17.33;;;;;;;8.07;96.06;99188.78;6238646;23;20008;-84
2024/03/11 02:47:32;;;;;;;25.83;16.40;;;;;;;8.09;96.38;99183.53;6213237;23;20016;-82
2024/03/11 02:50:13;;;;;;;27.38;15.35;;;;;;;8.06;96.03;99184.47;6238088;23;20008;-84
2024/03/11 02:52:56;;;;;;;27.02;15.05;;;;;;;8.09;96.22;99184.38;6237020;23;20036;-84
2024/03/11 02:55:43;;;;;;;34.00;17.25;;;;;;;8.03;96.75;99184.56;6238106;23;20031;-86
2024/03/11 02:58:28;;;;;;;29.63;17.23;;;;;;;8.00;97.41;99186.34;6237681;23;20020;-84
2024/03/11 03:01:16;;;;;;;28.58;17.40;;;;;;;7.94;97.89;99180.38;6208041;23;20024;-83
2024/03/11 03:03:47;;;;;;;30.17;16.58;;;;;;;7.98;97.93;99181.19;6186221;22;20024;-89
2024/03/11 03:06:16;;;;;;;25.45;15.95;;;;;;;7.99;97.66;99180.31;6232336;23;20020;-88
2024/03/11 03:08:46;;;;;;;31.30;17.40;;;;;;;7.94;97.77;99185.59;6236680;23;20031;-88
2024/03/11 03:11:13;;;;;;;27.17;16.33;;;;;;;7.95;97.94;99186.44;6207166;23;20047;-88
2024/03/11 03:13:40;;;;;;;30.95;16.50;;;;;;;7.95;98.28;99194.25;6229060;23;20086;-88
2024/03/11 03:16:07;;;;;;;27.10;15.77;;;;;;;7.95;98.09;99204.69;6199845;23;20637;-89
2024/03/11 03:18:35;;;;;;;28.92;16.63;;;;;;;7.92;98.60;99196.94;6172096;23;20036;-88
2024/03/11 03:21:06;;;;;;;27.15;17.67;;;;;;;7.95;98.40;99191.66;6196081;23;20111;-89
2024/03/11 03:23:37;;;;;;;26.13;16.35;;;;;;;7.90;99.33;99185.69;6199477;23;20043;-88
2024/03/11 03:26:07;;;;;;;25.58;14.77;;;;;;;7.93;98.91;99178.66;6210109;23;20028;-90
2024/03/11 03:28:34;;;;;;;32.42;18.13;;;;;;;7.93;98.78;99181.28;6223465;23;20052;-90
2024/03/11 03:31:04;;;;;;;29.95;17.15;;;;;;;7.92;99.08;99176.09;6224818;23;20103;-90
2024/03/11 03:33:31;;;;;;;27.60;16.23;;;;;;;7.88;99.63;99177.06;6197127;23;20070;-89
2024/03/11 03:35:58;;;;;;;28.15;17.83;;;;;;;7.87;100.00;99178.78;6222299;23;20016;-90
2024/03/11 03:38:26;;;;;;;29.48;16.70;;;;;;;7.88;99.97;99180.50;6208079;22;20027;-90
2024/03/11 03:40:53;;;;;;;26.27;15.30;;;;;;;7.88;99.96;99180.50;6205669;22;20082;-90
2024/03/11 03:43:20;;;;;;;28.50;16.17;;;;;;;7.86;100.00;99173.63;6250180;22;20020;-89
2024/03/11 03:45:53;;;;;;;31.63;18.13;;;;;;;7.81;100.00;99168.53;6225503;22;20012;-90
2024/03/11 03:48:21;;;;;;;25.85;16.40;;;;;;;7.84;100.00;99170.22;6243842;22;20046;-90
2024/03/11 03:50:48;;;;;;;34.15;18.02;;;;;;;7.83;100.00;99171.94;6233839;22;20020;-89
2024/03/11 03:53:18;;;;;;;28.25;15.77;;;;;;;7.81;100.00;99178.06;6226696;22;20042;-88
2024/03/11 03:55:50;;;;;;;25.13;15.55;;;;;;;7.81;100.00;99175.47;6235657;22;20072;-92
2024/03/11 03:58:19;;;;;;;28.05;16.63;;;;;;;7.77;100.00;99179.91;6245955;22;20003;-91
2024/03/11 04:00:49;;;;;;;26.30;16.05;;;;;;;7.80;100.00;99179.00;6274145;22;20043;-89
2024/03/11 04:03:18;;;;;;;35.42;17.00;;;;;;;7.83;100.00;99176.31;6262709;22;20120;-89
2024/03/11 04:05:52;;;;;;;26.70;15.88;;;;;;;7.82;100.00;99185.84;6255646;22;20650;-90
2024/03/11 04:08:23;;;;;;;27.95;16.05;;;;;;;7.78;100.00;99189.41;6254899;22;20281;-89
2024/03/11 04:10:52;;;;;;;28.67;17.95;;;;;;;7.79;100.00;99183.31;6264362;22;20004;-89
2024/03/11 04:13:21;;;;;;;28.95;17.15;;;;;;;7.75;100.00;99179.91;6222338;22;20030;-90
2024/03/11 04:15:50;;;;;;;27.63;15.55;;;;;;;7.78;100.00;99166.84;6274153;22;20019;-89
2024/03/11 04:18:18;;;;;;;28.67;17.02;;;;;;;7.80;100.00;99171.19;6247942;22;20029;-89
2024/03/11 04:20:45;;;;;;;34.15;16.70;;;;;;;7.71;100.00;99185.25;6238138;22;20019;-90
2024/03/11 04:23:12;;;;;;;26.73;16.02;;;;;;;7.74;100.00;99196.47;6228057;22;20016;-89
2024/03/11 04:25:39;;;;;;;29.15;16.60;;;;;;;7.76;100.00;99186.00;6255047;22;20027;-88
2024/03/11 04:28:06;;;;;;;24.23;15.70;;;;;;;7.71;100.00;99187.84;6273375;22;20023;-90
2024/03/11 04:30:44;;;;;;;26.75;15.60;;;;;;;7.72;100.00;99197.38;6241174;22;20115;-89
2024/03/11 04:33:16;;;;;;;30.00;17.20;;;;;;;7.70;100.00;99193.94;6276425;22;20011;-90
2024/03/11 04:35:48;;;;;;;25.73;15.88;;;;;;;7.71;100.00;99201.72;6229239;22;20028;-85
2024/03/11 04:38:19;;;;;;;27.27;15.85;;;;;;;7.73;100.00;99204.28;6264198;22;20030;-83
2024/03/11 04:40:51;;;;;;;28.33;17.30;;;;;;;7.75;100.00;99203.38;6239092;22;20019;-85
2024/03/11 04:43:20;;;;;;;26.27;15.68;;;;;;;7.76;100.00;99193.81;6262856;22;20024;-82
2024/03/11 04:45:55;;;;;;;26.00;15.57;;;;;;;7.73;100.00;99201.69;6263639;22;20071;-84
2024/03/11 04:48:25;;;;;;;26.70;15.30;;;;;;;7.67;100.00;99205.28;6259905;22;20007;-84
2024/03/11 04:51:23;;;;;;;28.17;15.57;;;;;;;7.72;100.00;99206.03;6242045;22;20019;-84
2024/03/11 04:54:08;;;;;;;26.15;15.13;;;;;;;7.73;100.00;99201.69;6259032;22;20027;-84
2024/03/11 04:56:49;;;;;;;27.73;15.40;;;;;;;7.71;100.00;99193.91;6299906;22;20084;-83
2024/03/11 05:05:21;;;;;;;30.70;17.33;;;;;;;7.64;100.00;99188.84;6293563;22;20029;-83
2024/03/11 05:07:55;;;;;;;29.25;16.58;;;;;;;7.65;100.00;99187.97;6247163;22;20046;-85
2024/03/11 05:10:27;;;;;;;27.70;16.23;;;;;;;7.59;100.00;99181.16;6269614;22;20022;-84
2024/03/11 05:12:54;;;;;;;30.65;17.88;;;;;;;7.65;100.00;99181.00;6267269;22;20053;-83
2024/03/11 05:15:32;;;;;;;32.13;17.83;;;;;;;7.64;100.00;99175.81;6267641;22;20015;-82
2024/03/11 05:18:06;;;;;;;34.00;16.42;;;;;;;7.59;100.00;99184.59;6245499;22;20023;-84
2024/03/11 05:20:34;;;;;;;25.23;15.60;;;;;;;7.60;100.00;99188.91;6269360;22;20027;-83
2024/03/11 05:23:10;;;;;;;34.38;18.73;;;;;;;7.62;100.00;99186.28;6263946;22;20533;-85
2024/03/11 05:25:51;;;;;;;34.20;17.58;;;;;;;7.58;100.00;99190.69;6292175;22;20033;-84
2024/03/11 05:28:31;;;;;;;28.02;17.27;;;;;;;7.60;100.00;99182.84;6267488;22;20023;-84
2024/03/11 05:31:13;;;;;;;29.00;15.43;;;;;;;7.62;100.00;99183.69;6265558;22;20047;-83
2024/03/11 05:33:41;;;;;;;31.63;17.73;;;;;;;7.63;100.00;99180.19;6287923;22;20464;-83
2024/03/11 05:36:08;;;;;;;27.25;15.30;;;;;;;7.65;100.00;99186.19;6288584;22;20038;-84
2024/03/11 05:38:39;;;;;;;27.98;16.98;;;;;;;7.69;100.00;99205.25;6265724;22;20108;-86
2024/03/11 05:41:08;;;;;;;29.58;15.13;;;;;;;7.68;100.00;99209.59;6288321;22;20085;-85
2024/03/11 05:43:36;;;;;;;26.40;17.08;;;;;;;7.68;100.00;99206.13;6264719;22;20075;-85
2024/03/11 05:46:12;;;;;;;26.25;16.52;;;;;;;7.68;100.00;99208.72;6296198;22;20007;-84
2024/03/11 05:52:02;;;;;;;27.17;16.55;;;;;;;7.68;100.00;99220.03;6306465;22;20090;-85
2024/03/11 05:54:33;;;;;;;29.63;17.58;;;;;;;7.58;100.00;99227.16;6267617;22;20023;-83
2024/03/11 05:57:04;;;;;;;30.42;16.25;;;;;;;7.58;100.00;99218.47;6288743;22;20019;-83
2024/03/11 05:59:32;;;;;;;27.88;16.48;;;;;;;7.54;100.00;99228.09;6287602;22;20015;-84
2024/03/11 06:02:11;;;;;;;26.83;16.25;;;;;;;7.52;100.00;99232.50;6264399;22;20015;-83
2024/03/11 06:04:41;;;;;;;29.27;17.55;;;;;;;7.56;100.00;99239.34;6306004;22;20023;-84
2024/03/11 06:07:11;;;;;;;32.78;16.45;;;;;;;7.61;100.00;99239.25;6287381;22;20015;-85
2024/03/11 06:09:40;;;;;;;30.52;17.02;;;;;;;7.62;100.00;99240.97;6283547;22;20042;-84
2024/03/11 06:12:10;;;;;;;29.55;15.68;;;;;;;7.65;100.00;99245.25;6263073;22;20042;-85
2024/03/11 06:14:40;;;;;;;30.77;17.08;;;;;;;7.69;100.00;99242.59;6290501;22;20404;-83
2024/03/11 06:17:10;;;;;;;30.27;17.38;;;;;;;7.71;100.00;99239.94;6238008;22;20083;-84
2024/03/11 06:19:45;;;;;;;26.88;15.90;;;;;;;7.71;100.00;99246.00;6266070;22;20026;-84
2024/03/11 06:22:22;;;;;;;27.65;17.00;;;;;;;7.73;100.00;99245.97;6314638;22;20022;-83
2024/03/11 06:24:49;;;;;;;31.42;16.55;;;;;;;7.71;100.00;99255.56;6268555;22;20098;-82
2024/03/11 06:27:17;;;;;;;28.67;17.92;;;;;;;7.69;100.00;99266.03;6284519;22;20110;-82
2024/03/11 06:29:44;;;;;;;30.75;17.27;;;;;;;7.64;100.00;99265.25;6259198;22;20197;-84
2024/03/11 06:32:13;;;;;;;22.00;15.65;;;;;;;7.68;100.00;99273.84;6260439;22;20536;-85
2024/03/11 06:34:43;;;;;;;33.28;17.08;;;;;;;7.68;100.00;99269.50;6289934;22;20015;-83
2024/03/11 06:37:14;;;;;;;28.85;16.33;;;;;;;7.73;100.00;99272.00;6287787;22;20023;-84
2024/03/11 06:39:43;;;;;;;25.27;15.77;;;;;;;7.75;100.00;99268.47;6240204;22;20033;-84
2024/03/11 06:42:13;;;;;;;26.08;16.50;;;;;;;7.75;100.00;99271.09;6263578;22;20360;-82
2024/03/11 06:44:42;;;;;;;31.80;17.17;;;;;;;7.69;100.00;99263.41;6261353;22;20050;-83
2024/03/11 06:47:41;;;;;;;33.08;16.65;;;;;;;7.72;100.00;99267.72;6275685;22;20094;-82
2024/03/11 06:50:19;;;;;;;29.77;16.35;;;;;;;7.74;100.00;99266.78;6287092;22;20045;-84
2024/03/11 06:53:07;;;;;;;26.52;17.20;;;;;;;7.62;100.00;99269.63;6294796;22;20025;-84
2024/03/11 06:55:43;;;;;;;;;;;;;;;;;;;;;
2024/03/11 06:58:11;;;;;;;26.85;15.20;;;;;;;7.75;100.00;99278.91;6267833;22;20030;-84
2024/03/11 07:00:49;;;;;;;26.38;17.20;;;;;;;7.80;100.00;99280.59;6292084;22;20020;-85
2024/03/11 07:03:18;;;;;;;28.58;17.55;;;;;;;7.78;100.00;99281.47;6263759;22;20019;-85
2024/03/11 07:05:46;;;;;;;29.70;16.10;;;;;;;7.81;100.00;99280.56;6267573;22;20495;-84
2024/03/11 07:08:21;;;;;;;23.10;16.02;;;;;;;7.82;100.00;99279.63;6267719;22;20087;-85
2024/03/11 07:10:49;;;;;;;28.70;16.85;;;;;;;7.87;100.00;99285.63;6293069;22;20049;-83
2024/03/11 07:13:17;;;;;;;33.10;17.48;;;;;;;7.91;100.00;99295.13;6268690;22;20015;-84
2024/03/11 07:19:41;;;;;;;26.20;15.60;;;;;;;7.93;100.00;99315.91;6278039;22;20031;-83
2024/03/11 07:22:08;;;;;;;28.50;16.23;;;;;;;7.88;100.00;99316.00;6292796;22;20082;-83
2024/03/11 07:24:42;;;;;;;29.13;17.57;;;;;;;7.87;100.00;99324.69;6289308;22;20075;-83
2024/03/11 07:27:10;;;;;;;30.65;17.38;;;;;;;7.74;100.00;99329.31;6264700;22;20019;-83
2024/03/11 07:29:46;;;;;;;29.67;17.08;;;;;;;7.77;100.00;99321.44;6294671;22;20015;-85
2024/03/11 07:32:15;;;;;;;28.45;16.42;;;;;;;7.78;100.00;99335.28;6317385;22;20071;-85
2024/03/11 07:35:12;;;;;;;27.20;16.52;;;;;;;7.81;100.00;99335.25;6269572;22;20094;-83
2024/03/11 07:37:41;;;;;;;29.85;16.90;;;;;;;7.82;100.00;99341.31;6290129;22;20025;-84
2024/03/11 07:40:18;;;;;;;25.98;16.77;;;;;;;7.88;100.00;99339.44;6292462;22;20019;-84
2024/03/11 07:42:48;;;;;;;32.80;18.45;;;;;;;7.94;100.00;99346.31;6266415;22;20055;-83
2024/03/11 07:45:18;;;;;;;28.52;18.27;;;;;;;7.99;100.00;99349.69;6264976;22;20015;-84
2024/03/11 07:47:46;;;;;;;28.23;17.45;;;;;;;7.97;100.00;99346.25;6268359;22;20019;-83
2024/03/11 07:50:19;;;;;;;31.15;18.00;;;;;;;7.95;100.00;99354.09;6293889;22;20015;-82
2024/03/11 07:52:54;;;;;;;28.00;17.63;;;;;;;7.99;100.00;99362.72;6291753;22;20019;-84
2024/03/11 07:55:24;;;;;;;30.33;17.45;;;;;;;8.11;100.00;99369.44;6240308;22;20023;-82
2024/03/11 07:57:54;;;;;;;33.10;17.05;;;;;;;8.09;100.00;99376.41;6265415;22;20019;-84
2024/03/11 08:00:29;;;;;;;28.88;17.88;;;;;;;8.22;100.00;99369.22;6236606;22;20023;-83
2024/03/11 08:03:00;;;;;;;26.83;17.45;;;;;;;8.31;100.00;99373.41;6240202;23;20028;-83
2024/03/11 08:05:28;;;;;;;31.63;17.33;;;;;;;8.43;100.00;99370.53;6156734;23;20030;-85
2024/03/11 08:07:58;;;;;;;33.88;17.55;;;;;;;8.55;100.00;99370.31;6175339;23;20096;-85
2024/03/11 08:10:25;;;;;;;30.55;17.70;;;;;;;8.60;100.00;99378.91;6174189;23;20021;-85
2024/03/11 08:12:52;;;;;;;29.20;17.73;;;;;;;8.64;100.00;99376.22;6220142;23;20020;-84
2024/03/11 08:15:22;;;;;;;27.88;17.85;;;;;;;8.67;100.00;99366.56;6198099;23;20075;-84
2024/03/11 08:17:52;;;;;;;32.20;17.95;;;;;;;8.59;100.00;99381.50;6224431;23;20028;-85
2024/03/11 08:20:25;;;;;;;31.27;19.85;;;;;;;8.66;100.00;99390.94;6222435;23;20345;-85
2024/03/11 08:22:59;;;;;;;28.85;17.88;;;;;;;8.63;100.00;99393.63;6146712;23;20121;-83
2024/03/11 08:25:27;;;;;;;29.15;18.40;;;;;;;8.66;100.00;99393.53;6170386;23;20013;-85
2024/03/11 08:27:58;;;;;;;32.08;19.65;;;;;;;8.64;100.00;99394.47;6197431;23;20086;-85
2024/03/11 08:30:30;;;;;;;29.92;19.63;;;;;;;8.62;100.00;99394.50;6223067;23;20020;-84
2024/03/11 08:32:59;;;;;;;32.40;20.10;;;;;;;8.60;100.00;99397.16;6173616;23;20015;-85
2024/03/11 08:35:27;;;;;;;31.08;18.55;;;;;;;8.58;100.00;99393.72;6223723;23;20020;-83
2024/03/11 08:37:53;;;;;;;32.33;19.58;;;;;;;8.53;100.00;99398.16;6170654;23;20051;-84
2024/03/11 08:40:26;;;;;;;32.05;20.40;;;;;;;8.47;100.00;99402.66;6170536;23;20071;-85
2024/03/11 08:42:56;;;;;;;30.88;19.63;;;;;;;8.49;100.00;99401.72;6219792;23;20652;-84
2024/03/11 08:45:31;;;;;;;38.05;20.38;;;;;;;8.47;100.00;99408.72;6219381;23;20411;-84
2024/03/11 08:48:02;;;;;;;36.05;19.85;;;;;;;8.57;100.00;99412.84;6219676;23;20020;-85
2024/03/11 08:50:29;;;;;;;28.75;19.10;;;;;;;8.53;100.00;99416.41;6169152;23;20074;-85
2024/03/11 08:52:56;;;;;;;34.50;20.17;;;;;;;8.56;100.00;99415.50;6195661;23;20032;-85
2024/03/11 08:55:25;;;;;;;30.90;19.63;;;;;;;8.67;100.00;99416.16;6170913;23;20046;-85
2024/03/11 08:57:54;;;;;;;33.22;20.90;;;;;;;8.71;100.00;99414.34;6221848;23;20052;-84
2024/03/11 09:00:27;;;;;;;34.00;20.73;;;;;;;8.94;100.00;99416.41;6197652;23;20048;-84
2024/03/11 09:02:58;;;;;;;32.35;20.25;;;;;;;9.13;100.00;99410.81;6173963;23;20032;-85
2024/03/11 09:05:25;;;;;;;32.00;20.83;;;;;;;9.33;100.00;99411.16;6175161;23;20046;-83
2024/03/11 09:07:53;;;;;;;33.17;20.48;;;;;;;9.59;100.00;99415.78;6171478;23;20087;-82
2024/03/11 09:10:20;;;;;;;33.10;22.15;;;;;;;10.06;100.00;99419.81;6195911;23;20019;-83
2024/03/11 09:12:49;;;;;;;28.10;19.67;;;;;;;10.38;100.00;99412.88;6169105;23;20051;-85
2024/03/11 09:15:16;;;;;;;32.17;20.42;;;;;;;10.75;97.22;99417.03;6194253;23;20027;-84
2024/03/11 09:17:46;;;;;;;32.30;20.13;;;;;;;11.16;94.82;99412.31;6168245;23;20020;-85
2024/03/11 09:20:16;;;;;;;33.10;21.63;;;;;;;10.99;91.98;99409.34;6218739;23;20047;-84
2024/03/11 09:22:49;;;;;;;32.28;19.75;;;;;;;11.46;89.39;99406.13;6170930;23;20490;-83
2024/03/11 09:25:18;;;;;;;29.73;21.02;;;;;;;11.70;88.18;99404.47;6170302;23;20052;-84
2024/03/11 09:28:00;;;;;;;29.45;20.20;;;;;;;11.92;85.66;99399.34;6193866;23;20024;-83
2024/03/11 09:30:31;;;;;;;30.95;19.67;;;;;;;11.46;87.68;99399.16;6169202;23;20020;-82
2024/03/11 09:32:59;;;;;;;31.63;21.90;;;;;;;11.09;90.62;99408.16;6169605;23;20259;-85
2024/03/11 09:35:32;;;;;;;31.85;20.85;;;;;;;11.17;91.11;99405.31;6217100;23;20559;-85
2024/03/11 09:38:00;;;;;;;30.33;21.23;;;;;;;11.02;91.34;99409.28;6167549;23;20031;-84
2024/03/11 09:40:27;;;;;;;29.77;22.13;;;;;;;11.09;92.65;99413.41;6191787;23;20115;-85
2024/03/11 09:43:00;;;;;;;29.00;18.60;;;;;;;11.35;90.55;99419.59;6168876;23;20403;-86
2024/03/11 09:45:35;;;;;;;26.55;19.13;;;;;;;11.50;88.57;99421.72;6172692;23;20048;-85
2024/03/11 09:48:04;;;;;;;28.13;18.70;;;;;;;11.67;87.88;99430.81;6195525;23;20086;-84
2024/03/11 09:50:35;;;;;;;27.05;19.20;;;;;;;11.34;89.08;99433.59;6193363;23;20028;-84
2024/03/11 09:53:12;;;;;;;27.70;19.80;;;;;;;11.31;90.54;99437.16;6169681;23;20024;-85
2024/03/11 09:55:43;;;;;;;25.00;18.42;;;;;;;11.32;90.29;99441.50;6174025;23;20020;-85
2024/03/11 09:58:18;;;;;;;22.85;17.05;;;;;;;11.58;89.68;99440.66;6195142;23;20055;-84
2024/03/11 10:00:59;;;;;;;26.17;18.40;;;;;;;11.58;88.41;99445.91;6168215;23;20035;-83
2024/03/11 10:03:32;;;;;;;22.58;16.67;;;;;;;11.51;89.69;99449.66;6197304;23;20059;-86
2024/03/11 10:06:07;;;;;;;28.67;15.82;;;;;;;12.01;87.58;99445.44;6170608;23;20017;-83
2024/03/11 10:08:39;;;;;;;18.95;14.27;;;;;;;11.71;86.84;99454.22;6168755;23;20051;-84
2024/03/11 10:11:28;;;;;;;18.35;12.98;;;;;;;11.67;86.89;99451.78;6196416;23;20071;-84
2024/03/11 10:13:56;;;;;;;19.05;13.48;;;;;;;11.52;88.61;99456.59;6174473;23;20028;-84
2024/03/11 10:16:26;;;;;;;18.52;12.95;;;;;;;11.25;88.94;99464.41;6195335;23;20020;-84
2024/03/11 10:19:11;;;;;;;19.27;12.25;;;;;;;11.13;91.36;99469.19;6170338;23;20683;-85
2024/03/11 10:21:44;;;;;;;18.85;13.32;;;;;;;11.10;90.81;99467.50;6170616;23;20036;-84
2024/03/11 10:24:15;;;;;;;15.45;11.63;;;;;;;11.06;90.58;99465.88;6170692;23;20028;-84
2024/03/11 10:26:42;;;;;;;13.77;10.70;;;;;;;11.05;90.35;99462.41;6192953;23;20120;-84
2024/03/11 10:29:16;;;;;;;14.90;11.18;;;;;;;11.12;89.98;99478.81;6218991;23;20027;-84
2024/03/11 10:31:51;;;;;;;12.63;9.05;;;;;;;11.17;89.47;99469.06;6169164;23;20024;-83
2024/03/11 10:34:20;;;;;;;15.00;9.25;;;;;;;11.34;88.50;99481.63;6171297;23;20031;-85
2024/03/11 10:36:55;;;;;;;13.77;10.30;;;;;;;11.37;87.28;99478.06;6168717;23;20013;-85
2024/03/11 10:39:30;;;;;;;12.52;9.05;;;;;;;11.59;87.26;99481.69;6195127;23;20078;-84
2024/03/11 10:42:01;;;;;;;11.40;8.43;;;;;;;11.51;85.88;99477.59;6193516;23;20123;-84
2024/03/11 10:44:40;;;;;;;10.45;7.97;;;;;;;11.61;84.92;99479.03;6218094;23;20027;-84
2024/03/11 10:47:14;;;;;;;9.55;7.55;;;;;;;11.73;83.93;99485.63;6196121;23;20021;-85
2024/03/11 10:49:51;;;;;;;7.00;5.95;;;;;;;11.56;82.88;99483.56;6197812;23;20024;-83
2024/03/11 10:52:25;;;;;;;8.52;5.97;;;;;;;11.48;84.04;99489.03;6173091;23;20032;-84
2024/03/11 10:54:56;;;;;;;6.80;5.65;;;;;;;11.48;83.08;99491.66;6194576;23;20020;-83
2024/03/11 10:57:39;;;;;;;8.32;5.55;;;;;;;11.48;82.96;99496.06;6195066;23;20020;-85
2024/03/11 11:00:19;;;;;;;12.25;6.00;;;;;;;11.34;83.20;99504.34;6199421;23;20136;-82
2024/03/11 11:03:07;;;;;;;6.63;5.25;;;;;;;11.29;84.08;99509.72;6173170;23;20514;-83
2024/03/11 11:05:56;;;;;;;6.03;4.68;;;;;;;11.26;84.41;99517.66;6170663;23;20021;-84
2024/03/11 11:08:31;;;;;;;4.00;3.60;;;;;;;11.04;81.46;99512.19;6194750;23;20359;-85
2024/03/11 11:11:00;;;;;;;2.20;2.00;;;;;;;10.97;80.38;99515.91;6146214;23;20030;-83
2024/03/11 11:13:31;;;;;;;3.80;3.20;;;;;;;10.90;80.46;99521.31;6195343;23;20474;-83
2024/03/11 11:16:03;;;;;;;1.85;1.75;;;;;;;10.96;79.34;99514.19;6170167;23;20017;-83
2024/03/11 11:18:33;;;;;;;2.83;2.17;;;;;;;11.14;78.30;99521.50;6170534;23;20055;-84
2024/03/11 11:21:04;;;;;;;2.72;1.55;;;;;;;11.23;77.12;99528.25;6219618;23;20615;-85
2024/03/11 11:23:37;;;;;;;4.60;2.00;;;;;;;11.20;76.81;99521.34;6194901;23;20021;-83
2024/03/11 11:26:07;;;;;;;1.60;1.38;;;;;;;11.29;76.37;99521.94;6195625;23;20059;-83
2024/03/11 11:28:38;;;;;;;1.48;1.38;;;;;;;11.40;75.59;99523.34;6167949;23;20119;-83
2024/03/11 11:31:26;;;;;;;1.08;1.08;;;;;;;11.57;75.63;99520.19;6191623;23;20021;-84
2024/03/11 11:34:04;;;;;;;1.52;1.42;;;;;;;11.84;75.18;99514.16;6169631;23;20056;-86
2024/03/11 11:36:30;;;;;;;1.45;1.35;;;;;;;11.47;75.67;99526.66;6193606;23;20017;-84
2024/03/11 11:39:17;;;;;;;2.40;1.70;;;;;;;11.35;75.40;99538.34;6192979;23;20465;-84
2024/03/11 11:41:49;;;;;;;1.50;1.40;;;;;;;11.47;75.17;99538.88;6192636;23;20039;-85
2024/03/11 11:44:28;;;;;;;1.73;1.35;;;;;;;11.41;73.91;99545.19;6169574;23;20020;-84
2024/03/11 11:47:08;;;;;;;0.93;0.93;;;;;;;11.32;73.74;99545.47;6194987;23;20107;-84
2024/03/11 11:49:40;;;;;;;1.05;0.93;;;;;;;11.54;73.72;99546.50;6193148;23;20357;-84
2024/03/11 11:52:08;;;;;;;2.88;0.50;;;;;;;11.39;73.06;99542.63;6195306;23;20080;-84
2024/03/11 11:54:40;;;;;;;0.70;0.50;;;;;;;11.53;73.43;99552.66;6194537;23;20032;-87
2024/03/11 11:57:11;;;;;;;0.65;0.50;;;;;;;11.62;72.68;99548.91;6196486;23;20012;-83
2024/03/11 11:59:45;;;;;;;0.63;0.43;;;;;;;11.87;70.79;99545.50;6168305;23;20109;-84
2024/03/11 12:02:23;;;;;;;0.43;0.40;;;;;;;11.91;71.42;99552.38;6196303;23;20060;-85
2024/03/11 12:05:07;;;;;;;0.38;0.38;;;;;;;14.40;61.64;99551.09;6174993;23;20020;-86
2024/03/11 12:07:39;;;;;;;0.80;0.80;;;;;;;13.85;62.01;99546.34;6174077;23;20361;-85
2024/03/11 12:10:10;;;;;;;0.20;0.20;;;;;;;13.53;63.18;99549.34;6220919;23;20025;-84
2024/03/11 12:12:54;;;;;;;0.35;0.35;;;;;;;12.97;64.88;99554.91;6170990;23;20016;-86
2024/03/11 12:15:27;;;;;;;0.75;0.30;;;;;;;12.70;65.99;99563.75;6198868;23;20043;-85
2024/03/11 12:17:57;;;;;;;0.40;0.40;;;;;;;12.29;66.98;99565.16;6173026;23;20117;-85
2024/03/11 12:20:35;;;;;;;0.17;0.17;;;;;;;11.94;68.85;99565.38;6171018;23;20028;-85
2024/03/11 12:23:03;;;;;;;0.30;0.30;;;;;;;11.71;69.07;99574.81;6173458;23;20024;-83
2024/03/11 12:25:34;;;;;;;0.30;0.30;;;;;;;11.44;69.64;99570.44;6202334;23;20381;-85
2024/03/11 12:28:03;;;;;;;0.65;0.40;;;;;;;11.26;70.78;99575.28;6174593;23;20354;-86